Terminal Aerodrome Forecast
Issued by NWS Wilmington, NC

Home | Current Version | Previous Version | Text Only | Print | Product List | Glossary On
Versions: 1 2 3 4 5 6 7 8 9 10 11 12 13 14 15 16 17 18
000
FTUS42 KILM 020500
TAFLBT
TAF
KLBT 020528Z 0206/0306 03004KT 4SM BR VCSH OVC005
      TEMPO 0208/0212 2SM BR OVC004
     FM021500 04006KT P6SM VCTS BKN020CB
     FM022200 04005KT P6SM SCT020 BKN120=

USA.gov is the U.S. government's official web portal to all federal, state and local government web resources and services.